Portada
METAR-TAF:

METAR-TAF

Aeroports :

Aeroport de Jiddah Rei Abdulaziz

Jiddah, Aràbia Saudita

latitud: 21-42N, longitud: 039-11E, altitud: 15 m

Observació

L'informe es va fer fa 1 hora i 6 minuts, a les 13:00 UTC
Vent 12 kt del Oest
Temperatura 34°C
Humitat 60%
Pressió 1006 hPa
Visibilitat 10 km o més
sense núvols per sota de 1500 mi sense presència de cumulonimbus.

METAR: OEJN 151300Z 28012KT CAVOK 34/25 Q1006 NOSIG

Hora: 17:06 (14:06 UTC)

Pronòstic

L'informe es va fer fa 3 hores i 6 minuts, a les 11:00 UTC
Pronòstic vàlid del 15 a les 12 UTC al 16 a les 18 UTC
Vent 10 kt del Oest/Nord-Oest amb ràfegues de 20 kt
Visibilitat: 8000 m
Escasses núvols a una alçada de 4000 ft
Evolucionant progressivament
l' 15 a les 16 UTC al 15 a les 18 UTC
Vent 10 kt del Nord/Nord-Est

TAF: OEJN 151100Z 1512/1618 30010G20KT 8000 FEW040 BECMG 1516/1518 02010KT

Observacions i pronòstics meteorològics de més de 4000 aeroports (METAR i TAF).

Les estacions disponibles són els punts grocs i vermells al mapa.

Posi el ratolí al punt desitjat per veure el nom de l'estació.

Feu clic per veure les observacions i els pronòstics meteorològics.

Per canviar el mapa: feu clic els botons verds amb una creu de color negre per apropar; al botó verd amb un guió per allunyar la imatge; o en les fletxes verdes per a mapes adjacents.


METAR-TAF: